createdAt,value
2019-04-23T00:02:16.970Z,99.90
2019-04-23T00:04:44.766Z,99.90
2019-04-23T00:07:27.607Z,99.90
2019-04-23T00:09:59.292Z,99.90
2019-04-23T00:12:32.737Z,99.90
2019-04-23T00:15:04.480Z,99.90
2019-04-23T00:17:36.075Z,99.90
2019-04-23T00:20:03.744Z,99.90
2019-04-23T00:22:43.508Z,99.90
2019-04-23T00:25:45.299Z,99.90
2019-04-23T00:28:10.093Z,99.90
2019-04-23T00:30:47.019Z,99.90
2019-04-23T00:33:12.049Z,99.90
2019-04-23T00:35:38.901Z,99.90
2019-04-23T00:38:18.412Z,99.90
2019-04-23T00:40:43.947Z,99.90
2019-04-23T00:43:17.379Z,99.90
2019-04-23T00:45:48.433Z,99.90
2019-04-23T00:48:31.008Z,99.90
2019-04-23T00:53:22.136Z,99.90
2019-04-23T00:56:03.859Z,99.90
2019-04-23T00:58:38.275Z,99.90
2019-04-23T01:00:57.742Z,99.90
2019-04-23T01:03:25.225Z,99.90
2019-04-23T01:06:20.456Z,99.90
2019-04-23T01:08:40.445Z,99.90
2019-04-23T01:11:16.723Z,99.90
2019-04-23T01:16:19.568Z,99.90
2019-04-23T01:18:58.265Z,99.90
2019-04-23T01:21:17.925Z,99.90
2019-04-23T01:23:56.417Z,99.90
2019-04-23T01:26:57.621Z,99.90
2019-04-23T01:29:23.872Z,99.90
2019-04-23T01:31:51.988Z,99.90
2019-04-23T01:34:34.126Z,99.90
2019-04-23T01:36:56.033Z,99.90
2019-04-23T01:39:27.779Z,99.90
2019-04-23T01:42:12.476Z,99.90
2019-04-23T01:47:09.692Z,99.90
2019-04-23T01:49:46.596Z,99.90
2019-04-23T01:52:16.649Z,99.90
2019-04-23T01:54:48.300Z,99.90
2019-04-23T01:57:16.783Z,99.90
2019-04-23T01:59:56.563Z,99.90
2019-04-23T02:05:01.394Z,99.90
2019-04-23T02:07:34.191Z,99.90
2019-04-23T02:12:33.085Z,99.90
2019-04-23T02:15:09.741Z,99.90
2019-04-23T02:20:09.267Z,99.90
2019-04-23T02:22:52.366Z,99.90
2019-04-23T02:25:37.739Z,99.90
2019-04-23T02:28:03.200Z,99.90
2019-04-23T02:33:31.775Z,99.90
2019-04-23T02:35:50.634Z,99.90
2019-04-23T02:38:13.492Z,99.90
2019-04-23T02:45:58.739Z,99.90
2019-04-23T02:48:24.688Z,99.90
2019-04-23T02:53:45.564Z,99.90
2019-04-23T02:58:43.861Z,99.90
2019-04-23T03:01:14.979Z,99.90
2019-04-23T03:03:33.524Z,99.90
2019-04-23T03:08:39.516Z,99.90
2019-04-23T03:13:48.411Z,99.90
2019-04-23T03:18:53.872Z,99.90
2019-04-23T03:24:05.285Z,99.90
2019-04-23T03:26:55.572Z,99.90
2019-04-23T03:39:40.105Z,99.90
2019-04-23T03:42:02.903Z,99.90
2019-04-23T03:44:40.190Z,99.90
2019-04-23T03:49:41.028Z,99.90
2019-04-23T03:52:31.012Z,99.90
2019-04-23T03:54:45.263Z,99.90
2019-04-23T03:57:18.339Z,99.90
2019-04-23T03:59:58.987Z,99.90
2019-04-23T04:02:31.014Z,99.90
2019-04-23T04:04:44.559Z,99.90
2019-04-23T04:12:27.355Z,99.90
2019-04-23T04:17:26.654Z,99.90
2019-04-23T04:20:05.087Z,99.90
2019-04-23T04:25:10.044Z,99.90
2019-04-23T04:27:47.992Z,99.90
2019-04-23T04:30:10.775Z,99.90
2019-04-23T04:32:50.968Z,99.90
2019-04-23T04:43:16.055Z,99.90
2019-04-23T04:50:28.485Z,99.90
2019-04-23T04:55:37.569Z,99.90
2019-04-23T04:58:07.092Z,99.90
2019-04-23T05:00:54.774Z,99.90
2019-04-23T05:08:23.852Z,99.90
2019-04-23T05:13:41.184Z,99.90
2019-04-23T05:15:50.063Z,99.90
2019-04-23T05:21:05.686Z,99.90
2019-04-23T05:26:17.381Z,99.90
2019-04-23T05:28:58.025Z,99.90
2019-04-23T05:31:18.713Z,99.90
2019-04-23T05:33:52.341Z,99.90
2019-04-23T05:36:32.219Z,99.90
2019-04-23T05:39:01.257Z,99.90
2019-04-23T05:41:30.462Z,99.90
2019-04-23T05:44:02.269Z,99.90
2019-04-23T05:46:33.367Z,99.90
2019-04-23T05:49:09.218Z,99.90
2019-04-23T05:51:43.183Z,99.90
2019-04-23T05:54:06.486Z,99.90
2019-04-23T05:56:38.499Z,99.90
2019-04-23T05:59:12.477Z,99.90
2019-04-23T06:01:54.010Z,99.90
2019-04-23T06:04:29.553Z,99.90
2019-04-23T06:07:14.718Z,99.90
2019-04-23T06:14:24.973Z,99.90
2019-04-23T06:17:06.298Z,99.90
2019-04-23T06:19:27.631Z,99.90
2019-04-23T06:22:18.473Z,99.90
2019-04-23T06:24:39.775Z,99.90
2019-04-23T06:29:43.301Z,99.90
2019-04-23T06:32:14.428Z,99.90
2019-04-23T06:34:41.177Z,99.90
2019-04-23T06:37:18.323Z,99.90
2019-04-23T06:39:48.407Z,99.90
2019-04-23T06:42:17.997Z,99.90
2019-04-23T06:44:56.119Z,99.90
2019-04-23T06:47:27.610Z,99.90
2019-04-23T06:52:43.862Z,99.90
2019-04-23T06:57:42.614Z,99.90
2019-04-23T07:00:06.282Z,99.90
2019-04-23T07:02:39.121Z,99.90
2019-04-23T07:07:55.246Z,99.90
2019-04-23T07:10:18.662Z,99.90
2019-04-23T07:12:49.258Z,99.90
2019-04-23T07:15:34.596Z,99.90
2019-04-23T07:17:51.891Z,99.90
2019-04-23T07:20:30.495Z,99.90
2019-04-23T07:22:57.057Z,99.90
2019-04-23T07:25:48.448Z,99.90
2019-04-23T07:28:06.916Z,99.90
2019-04-23T07:30:33.217Z,99.90
2019-04-23T07:33:14.826Z,99.90
2019-04-23T07:35:45.560Z,99.90
2019-04-23T07:41:18.042Z,99.90
2019-04-23T07:44:11.010Z,99.90
2019-04-23T07:46:45.479Z,99.90
2019-04-23T07:49:12.020Z,99.90
2019-04-23T07:51:48.185Z,99.90
2019-04-23T07:54:19.379Z,99.90
2019-04-23T07:56:53.894Z,99.90
2019-04-23T07:59:17.548Z,99.90
2019-04-23T08:01:50.857Z,99.90
2019-04-23T08:04:29.566Z,99.90
2019-04-23T08:06:53.122Z,99.90
2019-04-23T08:09:34.157Z,99.90
2019-04-23T08:11:56.363Z,99.90
2019-04-23T08:14:32.217Z,99.90
2019-04-23T08:16:58.167Z,99.90
2019-04-23T08:19:48.114Z,99.90
2019-04-23T08:22:22.221Z,99.90
2019-04-23T08:27:18.097Z,99.90
2019-04-23T08:30:00.503Z,99.90
2019-04-23T08:32:52.575Z,99.90
2019-04-23T08:35:06.370Z,99.90
2019-04-23T08:37:58.052Z,99.90
2019-04-23T08:40:13.237Z,99.90
2019-04-23T08:43:09.385Z,99.90
2019-04-23T08:45:29.977Z,99.90
2019-04-23T08:55:49.456Z,99.90
2019-04-23T08:58:25.502Z,99.90
2019-04-23T09:03:25.370Z,99.90
2019-04-23T09:05:57.676Z,99.90
2019-04-23T09:11:04.753Z,99.90
2019-04-23T09:16:03.361Z,99.90
2019-04-23T09:18:52.825Z,99.90
2019-04-23T09:21:09.676Z,99.90
2019-04-23T09:26:07.884Z,99.90
2019-04-23T09:31:41.699Z,99.90
2019-04-23T09:36:38.004Z,99.90
2019-04-23T09:39:00.392Z,99.90
2019-04-23T09:41:46.149Z,99.90
2019-04-23T09:47:19.406Z,99.90
2019-04-23T09:49:53.970Z,99.90
2019-04-23T09:55:04.657Z,99.90
2019-04-23T09:57:26.483Z,99.90
2019-04-23T10:00:26.451Z,99.90
2019-04-23T10:02:27.414Z,99.90
2019-04-23T10:04:56.284Z,99.90
2019-04-23T10:07:26.433Z,99.90
2019-04-23T10:09:44.602Z,99.90
2019-04-23T10:12:15.641Z,99.90
2019-04-23T10:14:55.120Z,99.90
2019-04-23T10:17:18.241Z,99.90
2019-04-23T10:19:48.741Z,99.90
2019-04-23T10:22:19.597Z,99.90
2019-04-23T10:24:50.861Z,99.90
2019-04-23T10:27:23.135Z,99.90
2019-04-23T10:29:54.107Z,99.90
2019-04-23T10:32:25.485Z,99.90
2019-04-23T10:35:06.664Z,99.90
2019-04-23T10:37:36.656Z,99.90
2019-04-23T10:40:03.568Z,99.90
2019-04-23T10:42:35.881Z,99.90
2019-04-23T10:45:19.374Z,99.90
2019-04-23T10:55:58.962Z,99.90
2019-04-23T11:01:01.542Z,99.90
2019-04-23T11:03:49.271Z,99.90
2019-04-23T11:06:06.417Z,99.90
2019-04-23T11:08:38.933Z,98.60
2019-04-23T11:18:56.888Z,98.10
2019-04-23T11:21:24.069Z,99.00
2019-04-23T11:23:49.887Z,96.40
2019-04-23T11:26:29.877Z,96.70
2019-04-23T11:28:51.893Z,97.00
2019-04-23T11:31:39.152Z,95.80
2019-04-23T11:39:28.428Z,94.60
2019-04-23T11:41:59.961Z,93.00
2019-04-23T11:46:57.156Z,92.30
2019-04-23T11:49:34.653Z,91.90
2019-04-23T11:52:03.222Z,91.50
2019-04-23T11:54:26.997Z,92.50
2019-04-23T12:02:06.353Z,91.80
2019-04-23T12:04:48.225Z,91.60
2019-04-23T12:07:29.823Z,92.50
2019-04-23T12:10:07.547Z,92.30
2019-04-23T12:12:37.206Z,90.80
2019-04-23T12:15:16.116Z,92.70
2019-04-23T12:17:55.928Z,90.40
2019-04-23T12:20:23.356Z,90.50
2019-04-23T12:23:03.073Z,90.60
2019-04-23T12:25:27.910Z,90.60
2019-04-23T12:27:44.090Z,90.00
2019-04-23T12:30:38.210Z,91.50
2019-04-23T12:33:21.410Z,91.20
2019-04-23T12:35:46.577Z,90.80
2019-04-23T12:40:40.414Z,91.00
2019-04-23T12:43:19.204Z,90.70
2019-04-23T12:45:42.234Z,91.10
2019-04-23T12:55:57.844Z,90.60
2019-04-23T12:58:26.763Z,91.40
2019-04-23T13:01:10.664Z,90.80
2019-04-23T13:03:35.782Z,90.70
2019-04-23T13:06:00.261Z,91.00
2019-04-23T13:11:13.993Z,91.60
2019-04-23T13:13:47.891Z,90.90
2019-04-23T13:16:17.916Z,90.60
2019-04-23T13:18:52.478Z,90.40
2019-04-23T13:21:45.185Z,90.70
2019-04-23T13:24:04.205Z,90.60
2019-04-23T13:26:35.617Z,91.00
2019-04-23T13:29:18.486Z,90.70
2019-04-23T13:31:40.319Z,90.80
2019-04-23T13:34:23.124Z,87.90
2019-04-23T13:36:51.365Z,88.50
2019-04-23T13:39:28.992Z,87.70
2019-04-23T13:41:52.154Z,89.00
2019-04-23T13:44:25.445Z,89.60
2019-04-23T13:47:00.313Z,88.30
2019-04-23T13:49:34.942Z,87.00
2019-04-23T13:52:12.775Z,87.50
2019-04-23T13:54:58.513Z,86.70
2019-04-23T13:57:36.632Z,85.90
2019-04-23T14:07:23.329Z,85.10
2019-04-23T14:10:11.539Z,85.00
2019-04-23T14:12:30.636Z,84.00
2019-04-23T14:18:04.012Z,85.50
2019-04-23T14:20:12.176Z,86.10
2019-04-23T14:25:09.973Z,85.20
2019-04-23T14:27:51.968Z,86.10
2019-04-23T14:32:45.725Z,86.80
2019-04-23T14:35:25.716Z,85.10
2019-04-23T14:38:01.909Z,84.70
2019-04-23T14:40:26.640Z,84.90
2019-04-23T14:43:04.231Z,85.70
2019-04-23T14:45:44.195Z,86.60
2019-04-23T14:48:05.940Z,85.50
2019-04-23T14:55:49.372Z,85.80
2019-04-23T14:58:20.553Z,85.00
2019-04-23T15:01:05.200Z,85.80
2019-04-23T15:03:28.738Z,84.60
2019-04-23T15:06:06.692Z,85.40
2019-04-23T15:08:30.174Z,85.40
2019-04-23T15:11:06.825Z,85.90
2019-04-23T15:13:28.765Z,85.40
2019-04-23T15:16:09.791Z,85.30
2019-04-23T15:18:52.575Z,86.40
2019-04-23T15:21:37.329Z,86.40
2019-04-23T15:24:03.999Z,86.10
2019-04-23T15:28:30.006Z,86.50
2019-04-23T15:31:33.244Z,86.80
2019-04-23T15:34:02.197Z,86.50
2019-04-23T15:39:13.876Z,85.20
2019-04-23T15:41:43.955Z,85.70
2019-04-23T15:44:10.670Z,84.80
2019-04-23T15:46:57.023Z,85.80
2019-04-23T15:49:18.217Z,85.60
2019-04-23T15:51:52.084Z,85.40
2019-04-23T15:54:19.651Z,85.40
2019-04-23T15:56:41.467Z,86.20
2019-04-23T16:01:41.433Z,85.80
2019-04-23T16:03:57.146Z,86.20
2019-04-23T16:06:32.173Z,86.50
2019-04-23T16:09:16.311Z,86.50
2019-04-23T16:11:51.674Z,86.50
2019-04-23T16:17:10.121Z,87.50
2019-04-23T16:19:49.408Z,86.90
2019-04-23T16:22:22.703Z,87.00
2019-04-23T16:24:56.037Z,87.70
2019-04-23T16:27:16.942Z,88.10
2019-04-23T16:30:02.049Z,88.50
2019-04-23T16:32:52.635Z,89.10
2019-04-23T16:35:28.340Z,88.90
2019-04-23T16:38:04.306Z,89.40
2019-04-23T16:42:56.697Z,90.00
2019-04-23T16:45:22.998Z,90.20
2019-04-23T16:48:07.718Z,90.40
2019-04-23T16:50:41.753Z,90.80
2019-04-23T16:53:09.417Z,90.70
2019-04-23T16:55:37.872Z,91.10
2019-04-23T16:58:11.963Z,91.30
2019-04-23T17:05:53.676Z,91.70
2019-04-23T17:10:51.502Z,92.00
2019-04-23T17:13:21.126Z,92.10
2019-04-23T17:15:58.393Z,92.10
2019-04-23T17:18:25.511Z,92.10
2019-04-23T17:20:58.299Z,92.30
2019-04-23T17:23:40.066Z,92.30
2019-04-23T17:26:02.744Z,92.80
2019-04-23T17:28:39.085Z,92.50
2019-04-23T17:31:27.912Z,92.60
2019-04-23T17:33:43.937Z,92.60
2019-04-23T17:39:21.128Z,92.80
2019-04-23T17:42:01.703Z,92.70
2019-04-23T17:44:38.602Z,92.90
2019-04-23T17:46:56.536Z,92.70
2019-04-23T17:49:36.889Z,92.60
2019-04-23T17:52:11.471Z,92.70
2019-04-23T17:57:15.356Z,92.40
2019-04-23T18:00:12.710Z,92.40
2019-04-23T18:05:02.094Z,91.90
2019-04-23T18:10:25.053Z,91.70
2019-04-23T18:15:04.908Z,91.80
2019-04-23T18:20:16.751Z,92.70
2019-04-23T18:22:53.926Z,93.10
2019-04-23T18:25:24.048Z,93.10
2019-04-23T18:27:56.480Z,93.00
2019-04-23T18:30:49.610Z,93.40
2019-04-23T18:35:49.456Z,93.70
2019-04-23T18:38:37.505Z,94.20
2019-04-23T18:41:05.251Z,94.10
2019-04-23T18:43:30.904Z,94.20
2019-04-23T18:46:08.840Z,94.10
2019-04-23T18:48:45.478Z,94.60
2019-04-23T18:51:03.534Z,94.50
2019-04-23T18:59:02.420Z,94.50
2019-04-23T19:04:17.453Z,95.20
2019-04-23T19:09:12.202Z,96.20
2019-04-23T19:11:58.167Z,96.90
2019-04-23T19:14:25.690Z,97.30
2019-04-23T19:24:28.754Z,98.90
2019-04-23T19:27:13.711Z,99.30
2019-04-23T19:29:43.151Z,99.80
2019-04-23T19:32:00.612Z,99.80
2019-04-23T19:37:31.890Z,99.90
2019-04-23T19:42:26.705Z,99.90
2019-04-23T19:44:45.546Z,99.90
2019-04-23T19:47:16.974Z,99.90
2019-04-23T19:50:03.887Z,99.90
2019-04-23T19:52:30.839Z,99.90
2019-04-23T19:54:56.562Z,99.90
2019-04-23T19:57:50.745Z,99.90
2019-04-23T20:00:13.740Z,99.90
2019-04-23T20:02:38.630Z,99.90
2019-04-23T20:05:06.855Z,99.90
2019-04-23T20:07:52.213Z,99.90
2019-04-23T20:09:56.554Z,99.90
2019-04-23T20:12:42.696Z,99.90
2019-04-23T20:15:00.079Z,99.90
2019-04-23T20:17:43.038Z,99.90
2019-04-23T20:20:08.436Z,99.90
2019-04-23T20:22:52.352Z,99.90
2019-04-23T20:25:56.627Z,99.90
2019-04-23T20:28:01.957Z,99.90
2019-04-23T20:32:06.194Z,99.90
2019-04-23T20:35:35.572Z,99.90
2019-04-23T20:40:49.729Z,99.90
2019-04-23T20:43:18.981Z,99.90
2019-04-23T20:48:19.998Z,99.90
2019-04-23T20:50:50.852Z,99.90
2019-04-23T20:53:27.429Z,99.90
2019-04-23T20:56:10.182Z,99.90
2019-04-23T20:58:38.833Z,99.90
2019-04-23T21:03:52.432Z,99.90
2019-04-23T21:06:30.169Z,99.90
2019-04-23T21:09:10.147Z,99.90
2019-04-23T21:11:24.951Z,99.90
2019-04-23T21:16:37.464Z,99.90
2019-04-23T21:18:55.146Z,99.90
2019-04-23T21:21:40.119Z,99.90
2019-04-23T21:24:00.032Z,99.90
2019-04-23T21:26:44.270Z,99.90
2019-04-23T21:29:19.455Z,99.90
2019-04-23T21:31:48.489Z,99.90
2019-04-23T21:34:24.969Z,99.90
2019-04-23T21:36:49.519Z,99.90
2019-04-23T21:39:34.575Z,99.90
2019-04-23T21:42:14.464Z,99.90
2019-04-23T21:44:42.001Z,99.90
2019-04-23T21:47:09.110Z,99.90
2019-04-23T21:49:59.491Z,99.90
2019-04-23T21:52:17.983Z,99.90
2019-04-23T21:54:51.649Z,99.90
2019-04-23T21:57:27.834Z,99.90
2019-04-23T21:59:55.533Z,99.90
2019-04-23T22:02:28.155Z,99.90
2019-04-23T22:05:01.542Z,99.90
2019-04-23T22:10:02.612Z,99.90
2019-04-23T22:12:46.825Z,99.90
2019-04-23T22:15:07.135Z,99.90
2019-04-23T22:17:42.689Z,99.90
2019-04-23T22:20:20.785Z,99.90
2019-04-23T22:22:56.922Z,99.90
2019-04-23T22:25:18.082Z,99.90
2019-04-23T22:30:21.373Z,99.90
2019-04-23T22:33:14.080Z,99.90
2019-04-23T22:35:24.320Z,99.90
2019-04-23T22:38:09.567Z,99.90
2019-04-23T22:40:28.800Z,99.90
2019-04-23T22:45:37.964Z,99.90
2019-04-23T22:48:11.373Z,99.90
2019-04-23T22:50:47.282Z,99.90
2019-04-23T22:56:00.822Z,99.90
2019-04-23T22:58:11.237Z,99.90
2019-04-23T23:01:17.494Z,99.90
2019-04-23T23:03:44.187Z,99.90
2019-04-23T23:06:23.085Z,99.90
2019-04-23T23:08:55.967Z,99.90
2019-04-23T23:11:13.668Z,99.90
2019-04-23T23:14:02.815Z,99.90
2019-04-23T23:16:23.333Z,99.90
2019-04-23T23:18:58.905Z,99.90
2019-04-23T23:21:30.778Z,99.90
2019-04-23T23:24:04.455Z,99.90
2019-04-23T23:26:38.520Z,99.90
2019-04-23T23:29:00.700Z,99.90
2019-04-23T23:31:39.753Z,99.90
2019-04-23T23:36:46.891Z,99.90
2019-04-23T23:39:21.172Z,99.90
2019-04-23T23:41:48.981Z,99.90
2019-04-23T23:49:22.532Z,99.90
2019-04-23T23:51:49.438Z,99.90
2019-04-23T23:54:35.730Z,99.90
2019-04-23T23:57:12.503Z,99.90
2019-04-23T23:59:32.748Z,99.90
